sensor_id;sensor_type;location;lat;lon;timestamp;P1;durP1;ratioP1;P2;durP2;ratioP2
72517;SDS011;60540;51.178;6.738;2024-01-11T00:01:24;21.33;;;11.93;;
72517;SDS011;60540;51.178;6.738;2024-01-11T00:04:08;23.95;;;12.05;;
72517;SDS011;60540;51.178;6.738;2024-01-11T00:06:53;22.75;;;10.65;;
72517;SDS011;60540;51.178;6.738;2024-01-11T00:09:41;30.83;;;12.07;;
72517;SDS011;60540;51.178;6.738;2024-01-11T00:12:25;20.45;;;11.68;;
72517;SDS011;60540;51.178;6.738;2024-01-11T00:15:10;21.45;;;10.38;;
72517;SDS011;60540;51.178;6.738;2024-01-11T00:17:54;20.50;;;10.60;;
72517;SDS011;60540;51.178;6.738;2024-01-11T00:20:38;21.13;;;9.15;;
72517;SDS011;60540;51.178;6.738;2024-01-11T00:23:22;16.65;;;9.38;;
72517;SDS011;60540;51.178;6.738;2024-01-11T00:26:06;18.48;;;10.02;;
72517;SDS011;60540;51.178;6.738;2024-01-11T00:28:51;21.25;;;10.75;;
72517;SDS011;60540;51.178;6.738;2024-01-11T00:31:35;19.67;;;10.60;;
72517;SDS011;60540;51.178;6.738;2024-01-11T00:34:19;17.38;;;9.38;;
72517;SDS011;60540;51.178;6.738;2024-01-11T00:37:04;21.25;;;9.23;;
72517;SDS011;60540;51.178;6.738;2024-01-11T00:39:48;15.90;;;7.93;;
72517;SDS011;60540;51.178;6.738;2024-01-11T00:42:32;26.27;;;9.95;;
72517;SDS011;60540;51.178;6.738;2024-01-11T00:45:16;18.45;;;9.07;;
72517;SDS011;60540;51.178;6.738;2024-01-11T00:48:01;20.60;;;10.52;;
72517;SDS011;60540;51.178;6.738;2024-01-11T00:50:46;18.83;;;10.88;;
72517;SDS011;60540;51.178;6.738;2024-01-11T00:53:31;26.38;;;12.00;;
72517;SDS011;60540;51.178;6.738;2024-01-11T00:56:18;19.85;;;9.32;;
72517;SDS011;60540;51.178;6.738;2024-01-11T00:59:03;18.58;;;9.40;;
72517;SDS011;60540;51.178;6.738;2024-01-11T01:01:48;18.60;;;9.40;;
72517;SDS011;60540;51.178;6.738;2024-01-11T01:04:32;22.25;;;11.05;;
72517;SDS011;60540;51.178;6.738;2024-01-11T01:07:17;22.13;;;9.55;;
72517;SDS011;60540;51.178;6.738;2024-01-11T01:10:01;18.88;;;9.88;;
72517;SDS011;60540;51.178;6.738;2024-01-11T01:12:46;19.10;;;9.75;;
72517;SDS011;60540;51.178;6.738;2024-01-11T01:15:30;21.30;;;10.07;;
72517;SDS011;60540;51.178;6.738;2024-01-11T01:18:14;14.77;;;9.10;;
72517;SDS011;60540;51.178;6.738;2024-01-11T01:20:59;21.42;;;10.18;;
72517;SDS011;60540;51.178;6.738;2024-01-11T01:23:43;18.73;;;9.05;;
72517;SDS011;60540;51.178;6.738;2024-01-11T01:26:27;20.38;;;9.75;;
72517;SDS011;60540;51.178;6.738;2024-01-11T01:29:12;17.55;;;9.90;;
72517;SDS011;60540;51.178;6.738;2024-01-11T01:31:56;15.98;;;9.32;;
72517;SDS011;60540;51.178;6.738;2024-01-11T01:34:41;19.88;;;9.40;;
72517;SDS011;60540;51.178;6.738;2024-01-11T01:37:25;22.75;;;10.70;;
72517;SDS011;60540;51.178;6.738;2024-01-11T01:40:10;20.67;;;9.73;;
72517;SDS011;60540;51.178;6.738;2024-01-11T01:42:57;15.90;;;9.48;;
72517;SDS011;60540;51.178;6.738;2024-01-11T01:45:43;17.63;;;9.30;;
72517;SDS011;60540;51.178;6.738;2024-01-11T01:48:27;17.55;;;9.70;;
72517;SDS011;60540;51.178;6.738;2024-01-11T01:51:12;21.75;;;9.93;;
72517;SDS011;60540;51.178;6.738;2024-01-11T01:53:56;18.58;;;9.50;;
72517;SDS011;60540;51.178;6.738;2024-01-11T01:56:40;18.05;;;9.75;;
72517;SDS011;60540;51.178;6.738;2024-01-11T01:59:25;22.35;;;8.98;;
72517;SDS011;60540;51.178;6.738;2024-01-11T02:02:10;16.27;;;9.60;;
72517;SDS011;60540;51.178;6.738;2024-01-11T02:04:54;22.80;;;10.75;;
72517;SDS011;60540;51.178;6.738;2024-01-11T02:07:39;22.60;;;10.18;;
72517;SDS011;60540;51.178;6.738;2024-01-11T02:10:24;19.73;;;9.77;;
72517;SDS011;60540;51.178;6.738;2024-01-11T02:13:08;17.02;;;8.88;;
72517;SDS011;60540;51.178;6.738;2024-01-11T02:15:52;20.40;;;11.18;;
72517;SDS011;60540;51.178;6.738;2024-01-11T02:18:37;17.45;;;9.32;;
72517;SDS011;60540;51.178;6.738;2024-01-11T02:21:20;17.55;;;9.18;;
72517;SDS011;60540;51.178;6.738;2024-01-11T02:24:07;18.42;;;8.85;;
72517;SDS011;60540;51.178;6.738;2024-01-11T02:26:58;23.48;;;8.90;;
72517;SDS011;60540;51.178;6.738;2024-01-11T02:29:46;14.35;;;7.93;;
72517;SDS011;60540;51.178;6.738;2024-01-11T02:32:30;19.70;;;10.43;;
72517;SDS011;60540;51.178;6.738;2024-01-11T02:35:15;20.80;;;10.05;;
72517;SDS011;60540;51.178;6.738;2024-01-11T02:37:59;14.77;;;9.15;;
72517;SDS011;60540;51.178;6.738;2024-01-11T02:40:44;23.73;;;10.43;;
72517;SDS011;60540;51.178;6.738;2024-01-11T02:43:29;17.73;;;7.68;;
72517;SDS011;60540;51.178;6.738;2024-01-11T02:46:14;17.80;;;9.73;;
72517;SDS011;60540;51.178;6.738;2024-01-11T02:48:59;20.70;;;8.93;;
72517;SDS011;60540;51.178;6.738;2024-01-11T02:51:43;15.80;;;9.35;;
72517;SDS011;60540;51.178;6.738;2024-01-11T02:54:28;18.15;;;10.02;;
72517;SDS011;60540;51.178;6.738;2024-01-11T02:57:12;21.77;;;10.93;;
72517;SDS011;60540;51.178;6.738;2024-01-11T02:59:56;18.73;;;9.68;;
72517;SDS011;60540;51.178;6.738;2024-01-11T03:02:41;18.17;;;10.43;;
72517;SDS011;60540;51.178;6.738;2024-01-11T03:05:26;14.77;;;8.85;;
72517;SDS011;60540;51.178;6.738;2024-01-11T03:08:10;22.02;;;9.45;;
72517;SDS011;60540;51.178;6.738;2024-01-11T03:10:54;15.32;;;9.73;;
72517;SDS011;60540;51.178;6.738;2024-01-11T03:13:39;19.58;;;9.25;;
72517;SDS011;60540;51.178;6.738;2024-01-11T03:16:23;18.08;;;10.57;;
72517;SDS011;60540;51.178;6.738;2024-01-11T03:19:07;19.40;;;10.48;;
72517;SDS011;60540;51.178;6.738;2024-01-11T03:21:51;20.33;;;9.05;;
72517;SDS011;60540;51.178;6.738;2024-01-11T03:24:39;21.55;;;9.38;;
72517;SDS011;60540;51.178;6.738;2024-01-11T03:27:23;26.10;;;9.40;;
72517;SDS011;60540;51.178;6.738;2024-01-11T03:30:07;17.58;;;9.20;;
72517;SDS011;60540;51.178;6.738;2024-01-11T03:32:52;13.30;;;7.05;;
72517;SDS011;60540;51.178;6.738;2024-01-11T03:35:37;18.85;;;9.73;;
72517;SDS011;60540;51.178;6.738;2024-01-11T03:38:24;25.88;;;11.40;;
72517;SDS011;60540;51.178;6.738;2024-01-11T03:41:09;19.40;;;10.05;;
72517;SDS011;60540;51.178;6.738;2024-01-11T03:43:54;15.20;;;9.68;;
72517;SDS011;60540;51.178;6.738;2024-01-11T03:46:38;16.60;;;8.90;;
72517;SDS011;60540;51.178;6.738;2024-01-11T03:49:22;19.17;;;10.82;;
72517;SDS011;60540;51.178;6.738;2024-01-11T03:52:06;16.08;;;8.90;;
72517;SDS011;60540;51.178;6.738;2024-01-11T03:54:50;19.65;;;10.00;;
72517;SDS011;60540;51.178;6.738;2024-01-11T03:57:34;24.20;;;10.27;;
72517;SDS011;60540;51.178;6.738;2024-01-11T04:00:18;21.52;;;9.93;;
72517;SDS011;60540;51.178;6.738;2024-01-11T04:03:03;19.83;;;9.93;;
72517;SDS011;60540;51.178;6.738;2024-01-11T04:05:47;25.50;;;12.50;;
72517;SDS011;60540;51.178;6.738;2024-01-11T04:08:32;20.58;;;10.38;;
72517;SDS011;60540;51.178;6.738;2024-01-11T04:11:16;21.42;;;11.10;;
72517;SDS011;60540;51.178;6.738;2024-01-11T04:14:01;22.67;;;13.98;;
72517;SDS011;60540;51.178;6.738;2024-01-11T04:16:45;19.52;;;10.20;;
72517;SDS011;60540;51.178;6.738;2024-01-11T04:19:29;20.60;;;10.35;;
72517;SDS011;60540;51.178;6.738;2024-01-11T04:22:14;22.95;;;11.85;;
72517;SDS011;60540;51.178;6.738;2024-01-11T04:24:58;21.38;;;11.23;;
72517;SDS011;60540;51.178;6.738;2024-01-11T04:27:42;23.20;;;11.23;;
72517;SDS011;60540;51.178;6.738;2024-01-11T04:30:27;25.45;;;11.43;;
72517;SDS011;60540;51.178;6.738;2024-01-11T04:33:11;26.30;;;10.65;;
72517;SDS011;60540;51.178;6.738;2024-01-11T04:35:56;23.33;;;11.75;;
72517;SDS011;60540;51.178;6.738;2024-01-11T04:38:40;25.20;;;12.38;;
72517;SDS011;60540;51.178;6.738;2024-01-11T04:41:24;23.80;;;11.30;;
72517;SDS011;60540;51.178;6.738;2024-01-11T04:44:09;23.00;;;11.60;;
72517;SDS011;60540;51.178;6.738;2024-01-11T04:46:54;21.48;;;10.60;;
72517;SDS011;60540;51.178;6.738;2024-01-11T04:49:38;26.38;;;11.75;;
72517;SDS011;60540;51.178;6.738;2024-01-11T04:52:23;23.88;;;10.75;;
72517;SDS011;60540;51.178;6.738;2024-01-11T04:55:07;19.75;;;10.63;;
72517;SDS011;60540;51.178;6.738;2024-01-11T04:57:52;23.92;;;12.07;;
72517;SDS011;60540;51.178;6.738;2024-01-11T05:00:36;18.73;;;10.05;;
72517;SDS011;60540;51.178;6.738;2024-01-11T05:03:20;23.60;;;13.50;;
72517;SDS011;60540;51.178;6.738;2024-01-11T05:06:04;18.13;;;10.23;;
72517;SDS011;60540;51.178;6.738;2024-01-11T05:08:50;20.52;;;11.27;;
72517;SDS011;60540;51.178;6.738;2024-01-11T05:11:38;27.52;;;13.52;;
72517;SDS011;60540;51.178;6.738;2024-01-11T05:14:23;24.13;;;11.35;;
72517;SDS011;60540;51.178;6.738;2024-01-11T05:17:07;24.83;;;11.48;;
72517;SDS011;60540;51.178;6.738;2024-01-11T05:19:52;18.38;;;10.27;;
72517;SDS011;60540;51.178;6.738;2024-01-11T05:22:36;18.75;;;8.70;;
72517;SDS011;60540;51.178;6.738;2024-01-11T05:25:20;21.50;;;10.82;;
72517;SDS011;60540;51.178;6.738;2024-01-11T05:28:04;20.23;;;11.20;;
72517;SDS011;60540;51.178;6.738;2024-01-11T05:30:49;24.65;;;10.98;;
72517;SDS011;60540;51.178;6.738;2024-01-11T05:33:33;22.30;;;11.45;;
72517;SDS011;60540;51.178;6.738;2024-01-11T05:36:18;21.15;;;10.18;;
72517;SDS011;60540;51.178;6.738;2024-01-11T05:39:02;22.20;;;11.35;;
72517;SDS011;60540;51.178;6.738;2024-01-11T05:41:47;24.77;;;11.98;;
72517;SDS011;60540;51.178;6.738;2024-01-11T05:44:32;27.92;;;12.38;;
72517;SDS011;60540;51.178;6.738;2024-01-11T05:47:16;21.60;;;12.80;;
72517;SDS011;60540;51.178;6.738;2024-01-11T05:50:00;24.23;;;13.93;;
72517;SDS011;60540;51.178;6.738;2024-01-11T05:52:45;27.55;;;11.02;;
72517;SDS011;60540;51.178;6.738;2024-01-11T05:55:29;25.80;;;12.18;;
72517;SDS011;60540;51.178;6.738;2024-01-11T05:58:13;29.88;;;12.98;;
72517;SDS011;60540;51.178;6.738;2024-01-11T06:00:58;25.70;;;12.63;;
72517;SDS011;60540;51.178;6.738;2024-01-11T06:03:42;21.75;;;12.48;;
72517;SDS011;60540;51.178;6.738;2024-01-11T06:06:26;23.40;;;11.48;;
72517;SDS011;60540;51.178;6.738;2024-01-11T06:09:10;24.95;;;13.32;;
72517;SDS011;60540;51.178;6.738;2024-01-11T06:11:54;30.38;;;13.70;;
72517;SDS011;60540;51.178;6.738;2024-01-11T06:14:39;23.48;;;11.93;;
72517;SDS011;60540;51.178;6.738;2024-01-11T06:17:23;21.95;;;11.85;;
72517;SDS011;60540;51.178;6.738;2024-01-11T06:20:08;26.70;;;13.18;;
72517;SDS011;60540;51.178;6.738;2024-01-11T06:22:54;31.65;;;13.10;;
72517;SDS011;60540;51.178;6.738;2024-01-11T06:25:38;23.83;;;13.48;;
72517;SDS011;60540;51.178;6.738;2024-01-11T06:28:22;23.10;;;10.90;;
72517;SDS011;60540;51.178;6.738;2024-01-11T06:31:09;21.75;;;11.05;;
72517;SDS011;60540;51.178;6.738;2024-01-11T06:33:53;27.33;;;11.15;;
72517;SDS011;60540;51.178;6.738;2024-01-11T06:36:38;19.73;;;11.52;;
72517;SDS011;60540;51.178;6.738;2024-01-11T06:39:22;20.13;;;9.90;;
72517;SDS011;60540;51.178;6.738;2024-01-11T06:42:06;25.33;;;11.27;;
72517;SDS011;60540;51.178;6.738;2024-01-11T06:44:50;27.60;;;12.20;;
72517;SDS011;60540;51.178;6.738;2024-01-11T06:47:35;18.95;;;10.05;;
72517;SDS011;60540;51.178;6.738;2024-01-11T06:50:19;19.42;;;11.52;;
72517;SDS011;60540;51.178;6.738;2024-01-11T06:53:03;25.73;;;12.18;;
72517;SDS011;60540;51.178;6.738;2024-01-11T06:55:48;23.55;;;10.48;;
72517;SDS011;60540;51.178;6.738;2024-01-11T06:58:32;27.52;;;12.65;;
72517;SDS011;60540;51.178;6.738;2024-01-11T07:01:17;25.85;;;12.70;;
72517;SDS011;60540;51.178;6.738;2024-01-11T07:04:01;25.15;;;13.40;;
72517;SDS011;60540;51.178;6.738;2024-01-11T07:06:45;26.35;;;12.50;;
72517;SDS011;60540;51.178;6.738;2024-01-11T07:09:30;23.13;;;12.05;;
72517;SDS011;60540;51.178;6.738;2024-01-11T07:12:14;19.88;;;11.20;;
72517;SDS011;60540;51.178;6.738;2024-01-11T07:14:58;20.33;;;10.75;;
72517;SDS011;60540;51.178;6.738;2024-01-11T07:17:43;22.77;;;12.25;;
72517;SDS011;60540;51.178;6.738;2024-01-11T07:20:27;24.92;;;12.27;;
72517;SDS011;60540;51.178;6.738;2024-01-11T07:23:11;22.58;;;10.52;;
72517;SDS011;60540;51.178;6.738;2024-01-11T07:25:56;20.38;;;11.93;;
72517;SDS011;60540;51.178;6.738;2024-01-11T07:28:40;26.52;;;12.45;;
72517;SDS011;60540;51.178;6.738;2024-01-11T07:31:24;21.75;;;11.10;;
72517;SDS011;60540;51.178;6.738;2024-01-11T07:34:08;22.95;;;11.00;;
72517;SDS011;60540;51.178;6.738;2024-01-11T07:36:52;24.88;;;13.60;;
72517;SDS011;60540;51.178;6.738;2024-01-11T07:39:36;20.33;;;11.30;;
72517;SDS011;60540;51.178;6.738;2024-01-11T07:42:21;25.17;;;12.30;;
72517;SDS011;60540;51.178;6.738;2024-01-11T07:45:09;29.80;;;15.02;;
72517;SDS011;60540;51.178;6.738;2024-01-11T07:47:56;24.20;;;10.60;;
72517;SDS011;60540;51.178;6.738;2024-01-11T07:50:40;21.55;;;12.30;;
72517;SDS011;60540;51.178;6.738;2024-01-11T07:53:25;25.52;;;13.50;;
72517;SDS011;60540;51.178;6.738;2024-01-11T07:56:10;25.67;;;12.55;;
72517;SDS011;60540;51.178;6.738;2024-01-11T07:58:54;25.23;;;12.70;;
72517;SDS011;60540;51.178;6.738;2024-01-11T08:01:38;19.85;;;11.90;;
72517;SDS011;60540;51.178;6.738;2024-01-11T08:04:22;23.80;;;12.23;;
72517;SDS011;60540;51.178;6.738;2024-01-11T08:07:07;30.30;;;13.93;;
72517;SDS011;60540;51.178;6.738;2024-01-11T08:09:52;28.48;;;12.90;;
72517;SDS011;60540;51.178;6.738;2024-01-11T08:12:36;31.60;;;13.45;;
72517;SDS011;60540;51.178;6.738;2024-01-11T08:15:21;25.45;;;11.80;;
72517;SDS011;60540;51.178;6.738;2024-01-11T08:18:05;26.40;;;10.93;;
72517;SDS011;60540;51.178;6.738;2024-01-11T08:20:49;21.63;;;11.30;;
72517;SDS011;60540;51.178;6.738;2024-01-11T08:23:33;25.13;;;10.50;;
72517;SDS011;60540;51.178;6.738;2024-01-11T08:26:18;16.52;;;11.48;;
72517;SDS011;60540;51.178;6.738;2024-01-11T08:29:02;22.60;;;10.45;;
72517;SDS011;60540;51.178;6.738;2024-01-11T08:31:48;22.48;;;12.90;;
72517;SDS011;60540;51.178;6.738;2024-01-11T08:34:33;34.40;;;12.75;;
72517;SDS011;60540;51.178;6.738;2024-01-11T08:37:17;37.70;;;13.73;;
72517;SDS011;60540;51.178;6.738;2024-01-11T08:40:02;28.77;;;12.20;;
72517;SDS011;60540;51.178;6.738;2024-01-11T08:42:48;23.40;;;11.45;;
72517;SDS011;60540;51.178;6.738;2024-01-11T08:45:32;24.75;;;12.32;;
72517;SDS011;60540;51.178;6.738;2024-01-11T08:48:17;28.25;;;12.90;;
72517;SDS011;60540;51.178;6.738;2024-01-11T08:51:01;20.70;;;11.93;;
72517;SDS011;60540;51.178;6.738;2024-01-11T08:53:45;26.20;;;13.23;;
72517;SDS011;60540;51.178;6.738;2024-01-11T08:56:29;24.67;;;11.93;;
72517;SDS011;60540;51.178;6.738;2024-01-11T08:59:14;26.02;;;13.48;;
72517;SDS011;60540;51.178;6.738;2024-01-11T09:01:58;26.13;;;12.23;;
72517;SDS011;60540;51.178;6.738;2024-01-11T09:04:42;29.92;;;14.40;;
72517;SDS011;60540;51.178;6.738;2024-01-11T09:07:26;31.17;;;13.05;;
72517;SDS011;60540;51.178;6.738;2024-01-11T09:10:10;28.35;;;13.43;;
72517;SDS011;60540;51.178;6.738;2024-01-11T09:12:55;25.30;;;13.68;;
72517;SDS011;60540;51.178;6.738;2024-01-11T09:15:39;27.00;;;13.30;;
72517;SDS011;60540;51.178;6.738;2024-01-11T09:18:24;26.52;;;13.60;;
72517;SDS011;60540;51.178;6.738;2024-01-11T09:21:08;32.05;;;12.63;;
72517;SDS011;60540;51.178;6.738;2024-01-11T09:23:52;23.88;;;13.35;;
72517;SDS011;60540;51.178;6.738;2024-01-11T09:26:37;28.05;;;14.50;;
72517;SDS011;60540;51.178;6.738;2024-01-11T09:29:21;26.02;;;12.35;;
72517;SDS011;60540;51.178;6.738;2024-01-11T09:32:06;24.00;;;12.30;;
72517;SDS011;60540;51.178;6.738;2024-01-11T09:34:50;24.58;;;11.80;;
72517;SDS011;60540;51.178;6.738;2024-01-11T09:37:34;30.65;;;13.95;;
72517;SDS011;60540;51.178;6.738;2024-01-11T09:40:18;29.90;;;12.52;;
72517;SDS011;60540;51.178;6.738;2024-01-11T09:43:03;25.00;;;13.98;;
72517;SDS011;60540;51.178;6.738;2024-01-11T09:45:49;26.42;;;13.48;;
72517;SDS011;60540;51.178;6.738;2024-01-11T09:48:34;24.38;;;12.10;;
72517;SDS011;60540;51.178;6.738;2024-01-11T09:51:20;23.63;;;12.90;;
72517;SDS011;60540;51.178;6.738;2024-01-11T09:54:05;31.73;;;11.75;;
72517;SDS011;60540;51.178;6.738;2024-01-11T09:56:50;22.58;;;13.65;;
72517;SDS011;60540;51.178;6.738;2024-01-11T09:59:35;29.80;;;13.18;;
72517;SDS011;60540;51.178;6.738;2024-01-11T10:02:20;23.23;;;12.70;;
72517;SDS011;60540;51.178;6.738;2024-01-11T10:05:06;32.25;;;15.18;;
72517;SDS011;60540;51.178;6.738;2024-01-11T10:07:50;25.02;;;13.20;;
72517;SDS011;60540;51.178;6.738;2024-01-11T10:10:35;21.13;;;12.45;;
72517;SDS011;60540;51.178;6.738;2024-01-11T10:13:19;32.78;;;14.70;;
72517;SDS011;60540;51.178;6.738;2024-01-11T10:16:11;26.10;;;13.00;;
72517;SDS011;60540;51.178;6.738;2024-01-11T10:18:59;28.30;;;13.43;;
72517;SDS011;60540;51.178;6.738;2024-01-11T10:21:43;27.73;;;13.73;;
72517;SDS011;60540;51.178;6.738;2024-01-11T10:24:27;29.13;;;14.57;;
72517;SDS011;60540;51.178;6.738;2024-01-11T10:27:12;26.70;;;15.02;;
72517;SDS011;60540;51.178;6.738;2024-01-11T10:29:56;28.52;;;15.23;;
72517;SDS011;60540;51.178;6.738;2024-01-11T10:32:41;29.73;;;16.45;;
72517;SDS011;60540;51.178;6.738;2024-01-11T10:35:25;29.17;;;14.18;;
72517;SDS011;60540;51.178;6.738;2024-01-11T10:38:09;26.50;;;13.50;;
72517;SDS011;60540;51.178;6.738;2024-01-11T10:40:54;24.58;;;14.48;;
72517;SDS011;60540;51.178;6.738;2024-01-11T10:43:39;30.08;;;16.50;;
72517;SDS011;60540;51.178;6.738;2024-01-11T10:46:25;28.85;;;15.35;;
72517;SDS011;60540;51.178;6.738;2024-01-11T10:49:10;29.17;;;13.57;;
72517;SDS011;60540;51.178;6.738;2024-01-11T10:51:59;28.67;;;13.70;;
72517;SDS011;60540;51.178;6.738;2024-01-11T10:54:44;30.25;;;15.43;;
72517;SDS011;60540;51.178;6.738;2024-01-11T10:57:29;31.92;;;15.00;;
72517;SDS011;60540;51.178;6.738;2024-01-11T11:00:13;26.05;;;14.00;;
72517;SDS011;60540;51.178;6.738;2024-01-11T11:02:59;28.48;;;16.17;;
72517;SDS011;60540;51.178;6.738;2024-01-11T11:08:28;29.02;;;14.95;;
72517;SDS011;60540;51.178;6.738;2024-01-11T11:11:13;28.70;;;15.48;;
72517;SDS011;60540;51.178;6.738;2024-01-11T11:13:58;31.52;;;14.73;;
72517;SDS011;60540;51.178;6.738;2024-01-11T11:16:45;28.27;;;13.82;;
72517;SDS011;60540;51.178;6.738;2024-01-11T11:19:29;29.25;;;15.10;;
72517;SDS011;60540;51.178;6.738;2024-01-11T11:22:14;27.85;;;14.88;;
72517;SDS011;60540;51.178;6.738;2024-01-11T11:25:02;26.63;;;15.10;;
72517;SDS011;60540;51.178;6.738;2024-01-11T11:27:50;29.42;;;14.73;;
72517;SDS011;60540;51.178;6.738;2024-01-11T11:30:36;29.05;;;14.35;;
72517;SDS011;60540;51.178;6.738;2024-01-11T11:33:23;32.15;;;14.27;;
72517;SDS011;60540;51.178;6.738;2024-01-11T11:36:09;30.77;;;15.13;;
72517;SDS011;60540;51.178;6.738;2024-01-11T11:38:56;30.33;;;16.13;;
72517;SDS011;60540;51.178;6.738;2024-01-11T11:41:44;28.55;;;14.52;;
72517;SDS011;60540;51.178;6.738;2024-01-11T11:47:21;31.15;;;14.95;;
72517;SDS011;60540;51.178;6.738;2024-01-11T11:50:10;28.55;;;15.68;;
72517;SDS011;60540;51.178;6.738;2024-01-11T11:52:54;33.40;;;15.27;;
72517;SDS011;60540;51.178;6.738;2024-01-11T11:55:42;29.45;;;14.35;;
72517;SDS011;60540;51.178;6.738;2024-01-11T11:58:28;28.27;;;16.23;;
72517;SDS011;60540;51.178;6.738;2024-01-11T12:01:16;30.60;;;15.63;;
72517;SDS011;60540;51.178;6.738;2024-01-11T12:04:01;29.95;;;15.75;;
72517;SDS011;60540;51.178;6.738;2024-01-11T12:06:46;29.23;;;15.45;;
72517;SDS011;60540;51.178;6.738;2024-01-11T12:09:30;28.77;;;13.15;;
72517;SDS011;60540;51.178;6.738;2024-01-11T12:12:15;23.40;;;14.52;;
72517;SDS011;60540;51.178;6.738;2024-01-11T12:17:46;28.23;;;15.13;;
72517;SDS011;60540;51.178;6.738;2024-01-11T12:20:30;32.05;;;15.32;;
72517;SDS011;60540;51.178;6.738;2024-01-11T12:23:15;27.67;;;14.98;;
72517;SDS011;60540;51.178;6.738;2024-01-11T12:26:03;29.45;;;16.13;;
72517;SDS011;60540;51.178;6.738;2024-01-11T12:28:55;29.98;;;14.93;;
72517;SDS011;60540;51.178;6.738;2024-01-11T12:31:39;32.78;;;16.20;;
72517;SDS011;60540;51.178;6.738;2024-01-11T12:34:24;28.88;;;16.40;;
72517;SDS011;60540;51.178;6.738;2024-01-11T12:37:08;32.63;;;16.92;;
72517;SDS011;60540;51.178;6.738;2024-01-11T12:39:57;31.88;;;15.55;;
72517;SDS011;60540;51.178;6.738;2024-01-11T12:42:41;32.20;;;16.00;;
72517;SDS011;60540;51.178;6.738;2024-01-11T12:45:26;28.58;;;15.40;;
72517;SDS011;60540;51.178;6.738;2024-01-11T12:48:11;30.25;;;15.93;;
72517;SDS011;60540;51.178;6.738;2024-01-11T12:50:58;27.27;;;14.45;;
72517;SDS011;60540;51.178;6.738;2024-01-11T12:53:45;30.88;;;15.40;;
72517;SDS011;60540;51.178;6.738;2024-01-11T12:56:32;27.05;;;12.52;;
72517;SDS011;60540;51.178;6.738;2024-01-11T12:59:16;30.30;;;15.23;;
72517;SDS011;60540;51.178;6.738;2024-01-11T13:02:01;27.75;;;14.98;;
72517;SDS011;60540;51.178;6.738;2024-01-11T13:04:45;31.45;;;15.43;;
72517;SDS011;60540;51.178;6.738;2024-01-11T13:07:32;29.50;;;14.77;;
72517;SDS011;60540;51.178;6.738;2024-01-11T13:10:17;25.20;;;14.50;;
72517;SDS011;60540;51.178;6.738;2024-01-11T13:13:02;27.63;;;14.52;;
72517;SDS011;60540;51.178;6.738;2024-01-11T13:15:47;32.47;;;16.83;;
72517;SDS011;60540;51.178;6.738;2024-01-11T13:18:32;24.75;;;14.40;;
72517;SDS011;60540;51.178;6.738;2024-01-11T13:21:16;24.65;;;13.88;;
72517;SDS011;60540;51.178;6.738;2024-01-11T13:24:01;22.42;;;13.57;;
72517;SDS011;60540;51.178;6.738;2024-01-11T13:26:45;24.98;;;13.20;;
72517;SDS011;60540;51.178;6.738;2024-01-11T13:29:29;24.65;;;11.88;;
72517;SDS011;60540;51.178;6.738;2024-01-11T13:32:13;26.80;;;14.05;;
72517;SDS011;60540;51.178;6.738;2024-01-11T13:34:57;25.52;;;13.07;;
72517;SDS011;60540;51.178;6.738;2024-01-11T13:37:42;27.33;;;13.38;;
72517;SDS011;60540;51.178;6.738;2024-01-11T13:40:26;27.20;;;12.80;;
72517;SDS011;60540;51.178;6.738;2024-01-11T13:43:12;26.45;;;13.50;;
72517;SDS011;60540;51.178;6.738;2024-01-11T13:45:57;27.52;;;13.18;;
72517;SDS011;60540;51.178;6.738;2024-01-11T13:48:41;29.85;;;13.18;;
72517;SDS011;60540;51.178;6.738;2024-01-11T13:51:26;25.58;;;13.35;;
72517;SDS011;60540;51.178;6.738;2024-01-11T13:54:10;24.63;;;13.20;;
72517;SDS011;60540;51.178;6.738;2024-01-11T13:56:54;22.17;;;11.77;;
72517;SDS011;60540;51.178;6.738;2024-01-11T13:59:38;23.42;;;12.38;;
72517;SDS011;60540;51.178;6.738;2024-01-11T14:02:23;23.20;;;11.90;;
72517;SDS011;60540;51.178;6.738;2024-01-11T14:05:07;23.63;;;11.30;;
72517;SDS011;60540;51.178;6.738;2024-01-11T14:07:55;25.77;;;13.10;;
72517;SDS011;60540;51.178;6.738;2024-01-11T14:10:42;27.75;;;12.45;;
72517;SDS011;60540;51.178;6.738;2024-01-11T14:13:26;19.77;;;10.70;;
72517;SDS011;60540;51.178;6.738;2024-01-11T14:16:10;26.17;;;11.48;;
72517;SDS011;60540;51.178;6.738;2024-01-11T14:18:57;21.98;;;11.55;;
72517;SDS011;60540;51.178;6.738;2024-01-11T14:21:41;23.80;;;11.45;;
72517;SDS011;60540;51.178;6.738;2024-01-11T14:24:26;24.00;;;12.63;;
72517;SDS011;60540;51.178;6.738;2024-01-11T14:27:10;23.20;;;12.50;;
72517;SDS011;60540;51.178;6.738;2024-01-11T14:29:55;25.33;;;12.15;;
72517;SDS011;60540;51.178;6.738;2024-01-11T14:32:39;26.42;;;13.20;;
72517;SDS011;60540;51.178;6.738;2024-01-11T14:38:09;24.33;;;12.25;;
72517;SDS011;60540;51.178;6.738;2024-01-11T14:40:53;24.80;;;12.30;;
72517;SDS011;60540;51.178;6.738;2024-01-11T14:43:37;27.08;;;12.48;;
72517;SDS011;60540;51.178;6.738;2024-01-11T14:46:21;29.25;;;13.13;;
72517;SDS011;60540;51.178;6.738;2024-01-11T14:49:05;28.50;;;11.85;;
72517;SDS011;60540;51.178;6.738;2024-01-11T14:51:51;23.42;;;11.50;;
72517;SDS011;60540;51.178;6.738;2024-01-11T14:54:35;23.75;;;12.60;;
72517;SDS011;60540;51.178;6.738;2024-01-11T14:57:20;27.45;;;12.40;;
72517;SDS011;60540;51.178;6.738;2024-01-11T15:00:05;20.50;;;11.20;;
72517;SDS011;60540;51.178;6.738;2024-01-11T15:02:52;22.67;;;9.63;;
72517;SDS011;60540;51.178;6.738;2024-01-11T15:05:36;23.30;;;11.25;;
72517;SDS011;60540;51.178;6.738;2024-01-11T15:08:20;22.02;;;11.25;;
72517;SDS011;60540;51.178;6.738;2024-01-11T15:11:04;20.65;;;11.43;;
72517;SDS011;60540;51.178;6.738;2024-01-11T15:13:49;19.15;;;10.10;;
72517;SDS011;60540;51.178;6.738;2024-01-11T15:16:37;22.67;;;11.15;;
72517;SDS011;60540;51.178;6.738;2024-01-11T15:19:22;22.90;;;11.18;;
72517;SDS011;60540;51.178;6.738;2024-01-11T15:22:06;17.92;;;10.68;;
72517;SDS011;60540;51.178;6.738;2024-01-11T15:24:52;22.20;;;11.43;;
72517;SDS011;60540;51.178;6.738;2024-01-11T15:27:39;24.40;;;11.68;;
72517;SDS011;60540;51.178;6.738;2024-01-11T15:30:24;20.42;;;10.52;;
72517;SDS011;60540;51.178;6.738;2024-01-11T15:33:08;24.17;;;10.70;;
72517;SDS011;60540;51.178;6.738;2024-01-11T15:35:52;20.42;;;10.13;;
72517;SDS011;60540;51.178;6.738;2024-01-11T15:38:36;20.65;;;10.07;;
72517;SDS011;60540;51.178;6.738;2024-01-11T15:41:21;20.65;;;10.30;;
72517;SDS011;60540;51.178;6.738;2024-01-11T15:44:05;20.27;;;9.45;;
72517;SDS011;60540;51.178;6.738;2024-01-11T15:46:49;19.05;;;9.93;;
72517;SDS011;60540;51.178;6.738;2024-01-11T15:49:33;17.55;;;9.48;;
72517;SDS011;60540;51.178;6.738;2024-01-11T15:52:18;17.77;;;10.15;;
72517;SDS011;60540;51.178;6.738;2024-01-11T15:55:02;21.08;;;9.75;;
72517;SDS011;60540;51.178;6.738;2024-01-11T15:57:47;19.92;;;9.88;;
72517;SDS011;60540;51.178;6.738;2024-01-11T16:00:31;19.90;;;9.25;;
72517;SDS011;60540;51.178;6.738;2024-01-11T16:03:16;19.50;;;9.98;;
72517;SDS011;60540;51.178;6.738;2024-01-11T16:06:00;20.90;;;9.43;;
72517;SDS011;60540;51.178;6.738;2024-01-11T16:08:44;19.83;;;8.95;;
72517;SDS011;60540;51.178;6.738;2024-01-11T16:11:30;17.15;;;9.25;;
72517;SDS011;60540;51.178;6.738;2024-01-11T16:14:14;17.25;;;9.50;;
72517;SDS011;60540;51.178;6.738;2024-01-11T16:16:59;15.48;;;8.82;;